createdAt,value
2022-12-01T00:00:18.388Z,5.80
2022-12-01T00:02:47.265Z,5.80
2022-12-01T00:05:16.595Z,5.80
2022-12-01T00:07:52.195Z,5.80
2022-12-01T00:10:29.048Z,5.70
2022-12-01T00:13:01.860Z,5.80
2022-12-01T00:15:32.193Z,5.70
2022-12-01T00:18:01.044Z,5.70
2022-12-01T00:20:30.574Z,5.70
2022-12-01T00:23:00.885Z,5.70
2022-12-01T00:25:30.616Z,5.70
2022-12-01T00:28:00.608Z,5.80
2022-12-01T00:30:32.091Z,5.80
2022-12-01T00:33:00.757Z,5.80
2022-12-01T00:35:29.401Z,5.80
2022-12-01T00:37:58.049Z,5.70
2022-12-01T00:40:26.781Z,5.70
2022-12-01T00:42:58.497Z,5.70
2022-12-01T00:45:28.736Z,5.70
2022-12-01T00:47:57.467Z,5.70
2022-12-01T00:50:26.261Z,5.70
2022-12-01T00:52:54.898Z,5.80
2022-12-01T00:55:23.630Z,5.80
2022-12-01T00:57:52.745Z,5.80
2022-12-01T01:00:21.953Z,5.80
2022-12-01T01:02:54.977Z,5.80
2022-12-01T01:05:23.863Z,5.80
2022-12-01T01:07:52.551Z,5.80
2022-12-01T01:10:21.277Z,5.80
2022-12-01T01:12:50.263Z,5.80
2022-12-01T01:15:19.003Z,5.70
2022-12-01T01:17:47.873Z,5.80
2022-12-01T01:20:18.326Z,5.80
2022-12-01T01:22:46.944Z,5.80
2022-12-01T01:25:16.424Z,5.80
2022-12-01T01:27:45.569Z,5.80
2022-12-01T01:30:15.316Z,5.80
2022-12-01T01:32:44.309Z,5.70
2022-12-01T01:35:13.080Z,5.70
2022-12-01T01:37:43.130Z,5.70
2022-12-01T01:40:13.074Z,5.80
2022-12-01T01:42:41.708Z,5.80
2022-12-01T01:45:22.264Z,5.80
2022-12-01T01:47:52.809Z,5.70
2022-12-01T01:50:25.584Z,5.80
2022-12-01T01:53:01.693Z,5.70
2022-12-01T01:55:31.462Z,5.70
2022-12-01T01:58:02.798Z,5.70
2022-12-01T02:00:31.624Z,5.70
2022-12-01T02:03:01.455Z,5.70
2022-12-01T02:05:34.517Z,5.70
2022-12-01T02:08:05.938Z,5.80
2022-12-01T02:10:46.073Z,5.70
2022-12-01T02:13:26.612Z,5.70
2022-12-01T02:16:02.634Z,5.70
2022-12-01T02:18:39.486Z,5.70
2022-12-01T02:21:25.378Z,5.70
2022-12-01T02:24:26.505Z,5.80
2022-12-01T02:27:02.651Z,5.80
2022-12-01T02:30:03.893Z,5.80
2022-12-01T02:32:48.398Z,5.70
2022-12-01T02:35:23.620Z,5.70
2022-12-01T02:38:01.461Z,5.70
2022-12-01T02:40:34.612Z,5.70
2022-12-01T02:43:08.394Z,5.70
2022-12-01T02:45:46.312Z,5.70
2022-12-01T02:48:20.129Z,5.70
2022-12-01T02:50:49.204Z,5.70
2022-12-01T02:53:20.481Z,5.70
2022-12-01T02:55:51.303Z,5.70
2022-12-01T02:58:21.828Z,5.60
2022-12-01T03:01:05.263Z,5.60
2022-12-01T03:03:47.355Z,5.60
2022-12-01T03:06:25.469Z,5.60
2022-12-01T03:09:05.549Z,5.60
2022-12-01T03:11:43.491Z,5.70
2022-12-01T03:14:22.664Z,5.60
2022-12-01T03:16:55.593Z,5.70
2022-12-01T03:19:32.931Z,5.60
2022-12-01T03:22:06.646Z,5.60
2022-12-01T03:24:36.362Z,5.60
2022-12-01T03:27:06.440Z,5.60
2022-12-01T03:29:39.977Z,5.60
2022-12-01T03:32:15.525Z,5.60
2022-12-01T03:34:49.954Z,5.60
2022-12-01T03:37:22.752Z,5.60
2022-12-01T03:39:58.761Z,5.60
2022-12-01T03:42:32.908Z,5.60
2022-12-01T03:45:05.668Z,5.60
2022-12-01T03:47:37.371Z,5.50
2022-12-01T03:50:13.927Z,5.50
2022-12-01T03:52:50.507Z,5.50
2022-12-01T03:55:25.297Z,5.50
2022-12-01T03:57:58.073Z,5.50
2022-12-01T04:00:27.361Z,5.50
2022-12-01T04:02:57.863Z,5.50
2022-12-01T04:05:28.371Z,5.50
2022-12-01T04:07:57.217Z,5.50
2022-12-01T04:10:25.972Z,5.50
2022-12-01T04:12:59.094Z,5.50
2022-12-01T04:15:28.669Z,5.50
2022-12-01T04:17:57.399Z,5.50
2022-12-01T04:20:27.478Z,5.50
2022-12-01T04:22:56.267Z,5.50
2022-12-01T04:25:24.983Z,5.50
2022-12-01T04:27:53.694Z,5.50
2022-12-01T04:30:22.354Z,5.50
2022-12-01T04:32:51.090Z,5.50
2022-12-01T04:35:19.960Z,5.50
2022-12-01T04:37:50.032Z,5.50
2022-12-01T04:40:19.123Z,5.50
2022-12-01T04:42:48.259Z,5.50
2022-12-01T04:45:17.038Z,5.50
2022-12-01T04:47:46.082Z,5.50
2022-12-01T04:50:17.488Z,5.50
2022-12-01T04:52:46.700Z,5.50
2022-12-01T04:55:17.640Z,5.50
2022-12-01T04:57:46.312Z,5.50
2022-12-01T05:00:16.359Z,5.50
2022-12-01T05:02:46.233Z,5.40
2022-12-01T05:05:18.036Z,5.40
2022-12-01T05:07:46.815Z,5.50
2022-12-01T05:10:20.253Z,5.40
2022-12-01T05:12:49.061Z,5.50
2022-12-01T05:15:18.184Z,5.40
2022-12-01T05:17:46.944Z,5.40
2022-12-01T05:20:39.183Z,5.40
2022-12-01T05:23:09.795Z,5.40
2022-12-01T05:25:45.972Z,5.40
2022-12-01T05:28:15.601Z,5.40
2022-12-01T05:30:45.394Z,5.40
2022-12-01T05:33:14.328Z,5.40
2022-12-01T05:35:43.157Z,5.50
2022-12-01T05:38:12.125Z,5.40
2022-12-01T05:40:41.105Z,5.40
2022-12-01T05:43:11.202Z,5.40
2022-12-01T05:45:39.829Z,5.40
2022-12-01T05:48:09.931Z,5.50
2022-12-01T05:50:40.807Z,5.40
2022-12-01T05:53:11.663Z,5.50
2022-12-01T05:55:40.624Z,5.50
2022-12-01T05:58:11.384Z,5.40
2022-12-01T06:00:45.743Z,5.40
2022-12-01T06:03:15.730Z,5.50
2022-12-01T06:05:45.012Z,5.40
2022-12-01T06:08:15.996Z,5.50
2022-12-01T06:10:45.353Z,5.50
2022-12-01T06:13:17.695Z,5.40
2022-12-01T06:15:46.258Z,5.40
2022-12-01T06:18:15.720Z,5.50
2022-12-01T06:20:44.372Z,5.40
2022-12-01T06:23:13.051Z,5.50
2022-12-01T06:25:41.713Z,5.40
2022-12-01T06:28:10.431Z,5.50
2022-12-01T06:30:40.399Z,5.50
2022-12-01T06:33:09.125Z,5.50
2022-12-01T06:35:38.203Z,5.50
2022-12-01T06:38:06.805Z,5.50
2022-12-01T06:40:35.384Z,5.50
2022-12-01T06:43:04.288Z,5.50
2022-12-01T06:45:33.364Z,5.50
2022-12-01T06:48:03.360Z,5.50
2022-12-01T06:50:31.884Z,5.50
2022-12-01T06:53:00.428Z,5.50
2022-12-01T06:55:29.023Z,5.50
2022-12-01T06:58:01.100Z,5.50
2022-12-01T07:00:30.046Z,5.50
2022-12-01T07:02:58.915Z,5.50
2022-12-01T07:05:28.895Z,5.50
2022-12-01T07:07:59.685Z,5.50
2022-12-01T07:10:28.977Z,5.50
2022-12-01T07:12:58.193Z,5.40
2022-12-01T07:15:28.665Z,5.40
2022-12-01T07:17:57.242Z,5.40
2022-12-01T07:20:25.853Z,5.30
2022-12-01T07:22:57.010Z,5.30
2022-12-01T07:25:25.515Z,5.40
2022-12-01T07:27:54.113Z,5.40
2022-12-01T07:30:28.122Z,5.40
2022-12-01T07:32:57.084Z,5.40
2022-12-01T07:35:25.619Z,5.40
2022-12-01T07:37:56.984Z,5.50
2022-12-01T07:40:25.591Z,5.50
2022-12-01T07:42:54.117Z,5.50
2022-12-01T07:45:22.635Z,5.50
2022-12-01T07:47:53.941Z,5.50
2022-12-01T07:50:22.506Z,5.50
2022-12-01T07:52:51.395Z,5.50
2022-12-01T07:55:21.409Z,5.50
2022-12-01T07:57:49.991Z,5.50
2022-12-01T08:00:19.105Z,5.60
2022-12-01T08:02:49.802Z,5.50
2022-12-01T08:05:18.679Z,5.50
2022-12-01T08:07:47.362Z,5.50
2022-12-01T08:10:16.100Z,5.60
2022-12-01T08:12:48.397Z,5.60
2022-12-01T08:15:17.117Z,5.60
2022-12-01T08:17:45.929Z,5.60
2022-12-01T08:20:18.440Z,5.60
2022-12-01T08:22:50.976Z,5.60
2022-12-01T08:25:19.556Z,5.70
2022-12-01T08:27:49.479Z,5.70
2022-12-01T08:30:18.254Z,5.70
2022-12-01T08:32:46.980Z,5.70
2022-12-01T08:35:16.492Z,5.70
2022-12-01T08:37:48.223Z,5.80
2022-12-01T08:40:17.061Z,5.80
2022-12-01T08:42:45.766Z,5.80
2022-12-01T08:45:16.066Z,5.80
2022-12-01T08:47:47.962Z,5.80
2022-12-01T08:50:16.600Z,5.80
2022-12-01T08:52:47.978Z,5.80
2022-12-01T08:55:16.577Z,5.90
2022-12-01T08:57:45.885Z,5.90
2022-12-01T09:00:16.941Z,5.90
2022-12-01T09:02:45.895Z,6.00
2022-12-01T09:05:15.215Z,6.00
2022-12-01T09:08:05.756Z,6.00
2022-12-01T09:10:34.397Z,6.10
2022-12-01T09:13:02.976Z,6.00
2022-12-01T09:15:32.915Z,6.10
2022-12-01T09:18:01.401Z,6.10
2022-12-01T09:20:29.962Z,6.10
2022-12-01T09:22:58.623Z,6.10
2022-12-01T09:25:27.278Z,6.10
2022-12-01T09:27:55.847Z,6.10
2022-12-01T09:30:24.456Z,6.20
2022-12-01T09:32:54.368Z,6.20
2022-12-01T09:35:23.694Z,6.20
2022-12-01T09:37:52.323Z,6.20
2022-12-01T09:40:21.284Z,6.20
2022-12-01T09:42:50.214Z,6.20
2022-12-01T09:45:26.392Z,6.30
2022-12-01T09:48:00.704Z,6.30
2022-12-01T09:50:30.507Z,6.30
2022-12-01T09:53:01.964Z,6.30
2022-12-01T09:55:32.654Z,6.30
2022-12-01T09:58:04.606Z,6.30
2022-12-01T10:00:36.581Z,6.30
2022-12-01T10:03:16.951Z,6.30
2022-12-01T10:06:25.234Z,6.30
2022-12-01T10:08:45.248Z,6.40
2022-12-01T10:11:31.968Z,6.40
2022-12-01T10:14:01.373Z,6.40
2022-12-01T10:16:34.968Z,6.40
2022-12-01T10:19:09.902Z,6.40
2022-12-01T10:21:53.757Z,6.50
2022-12-01T10:24:34.902Z,6.50
2022-12-01T10:27:23.296Z,6.50
2022-12-01T10:29:59.798Z,6.50
2022-12-01T10:32:42.032Z,6.50
2022-12-01T10:35:16.497Z,6.60
2022-12-01T10:37:47.480Z,6.60
2022-12-01T10:40:18.045Z,6.60
2022-12-01T10:42:48.598Z,6.60
2022-12-01T10:45:21.166Z,6.60
2022-12-01T10:48:10.669Z,6.60
2022-12-01T10:50:41.063Z,6.70
2022-12-01T10:53:30.477Z,6.70
2022-12-01T10:56:07.147Z,6.70
2022-12-01T10:58:46.444Z,6.80
2022-12-01T11:01:21.642Z,6.80
2022-12-01T11:03:57.017Z,6.80
2022-12-01T11:06:30.263Z,6.80
2022-12-01T11:09:02.213Z,6.90
2022-12-01T11:11:34.174Z,6.90
2022-12-01T11:14:06.063Z,6.80
2022-12-01T11:16:41.664Z,6.80
2022-12-01T11:19:25.464Z,6.90
2022-12-01T11:22:00.213Z,6.90
2022-12-01T11:24:33.789Z,6.90
2022-12-01T11:27:02.688Z,6.90
2022-12-01T11:29:36.056Z,6.90
2022-12-01T11:32:18.045Z,6.90
2022-12-01T11:34:52.208Z,6.90
2022-12-01T11:37:24.948Z,6.90
2022-12-01T11:39:54.263Z,6.90
2022-12-01T11:42:26.945Z,7.00
2022-12-01T11:44:58.469Z,7.00
2022-12-01T11:47:28.920Z,7.10
2022-12-01T11:49:58.714Z,7.10
2022-12-01T11:52:32.260Z,7.10
2022-12-01T11:55:09.643Z,7.10
2022-12-01T11:57:41.929Z,7.10
2022-12-01T12:00:15.826Z,7.10
2022-12-01T12:02:56.357Z,7.10
2022-12-01T12:06:17.805Z,7.10
2022-12-01T12:09:04.844Z,7.10
2022-12-01T12:11:43.170Z,7.10
2022-12-01T12:14:31.785Z,7.30
2022-12-01T12:17:16.767Z,7.40
2022-12-01T12:20:08.547Z,7.20
2022-12-01T12:22:52.226Z,7.30
2022-12-01T12:25:38.006Z,7.20
2022-12-01T12:28:25.259Z,7.40
2022-12-01T12:31:11.380Z,7.60
2022-12-01T12:34:12.998Z,7.80
2022-12-01T12:36:48.538Z,7.80
2022-12-01T12:39:35.446Z,7.60
2022-12-01T12:42:10.608Z,7.60
2022-12-01T12:44:51.847Z,7.50
2022-12-01T12:47:34.206Z,7.40
2022-12-01T12:50:13.183Z,7.30
2022-12-01T12:52:45.823Z,7.20
2022-12-01T12:55:20.946Z,7.20
2022-12-01T12:57:55.393Z,7.20
2022-12-01T13:00:26.665Z,7.20
2022-12-01T13:02:58.699Z,7.10
2022-12-01T13:05:32.992Z,7.10
2022-12-01T13:08:05.606Z,7.20
2022-12-01T13:10:40.808Z,7.20
2022-12-01T13:13:24.447Z,7.20
2022-12-01T13:15:55.670Z,7.20
2022-12-01T13:18:34.881Z,7.20
2022-12-01T13:21:05.116Z,7.20
2022-12-01T13:23:34.875Z,7.20
2022-12-01T13:26:08.065Z,7.10
2022-12-01T13:28:43.152Z,7.20
2022-12-01T13:31:14.226Z,7.20
2022-12-01T13:33:55.221Z,7.30
2022-12-01T13:39:19.788Z,7.40
2022-12-01T13:42:00.021Z,7.50
2022-12-01T13:44:34.914Z,7.50
2022-12-01T13:47:07.088Z,7.30
2022-12-01T13:49:42.790Z,7.20
2022-12-01T13:52:35.099Z,7.20
2022-12-01T13:55:20.638Z,7.10
2022-12-01T13:57:50.914Z,7.10
2022-12-01T14:00:27.426Z,7.10
2022-12-01T14:03:49.697Z,7.10
2022-12-01T14:06:29.190Z,7.00
2022-12-01T14:09:02.603Z,7.00
2022-12-01T14:11:32.035Z,6.90
2022-12-01T14:14:04.572Z,6.90
2022-12-01T14:16:48.822Z,6.90
2022-12-01T14:19:31.480Z,6.90
2022-12-01T14:22:01.500Z,6.90
2022-12-01T14:24:38.124Z,6.90
2022-12-01T14:27:07.576Z,6.90
2022-12-01T14:29:38.509Z,6.90
2022-12-01T14:32:26.146Z,6.80
2022-12-01T14:35:00.653Z,6.80
2022-12-01T14:37:48.522Z,6.80
2022-12-01T14:40:31.699Z,6.80
2022-12-01T14:43:18.938Z,6.70
2022-12-01T14:45:56.552Z,6.70
2022-12-01T14:48:32.757Z,6.70
2022-12-01T14:51:15.395Z,6.70
2022-12-01T14:53:47.676Z,6.60
2022-12-01T14:56:19.507Z,6.60
2022-12-01T14:58:56.345Z,6.60
2022-12-01T15:01:26.664Z,6.60
2022-12-01T15:03:59.909Z,6.60
2022-12-01T15:06:31.192Z,6.60
2022-12-01T15:12:00.194Z,6.60
2022-12-01T15:14:34.324Z,6.60
2022-12-01T15:17:05.435Z,6.50
2022-12-01T15:19:38.802Z,6.50
2022-12-01T15:22:14.367Z,6.50
2022-12-01T15:24:44.088Z,6.50
2022-12-01T15:27:30.450Z,6.50
2022-12-01T15:30:03.382Z,6.40
2022-12-01T15:32:33.606Z,6.40
2022-12-01T15:35:05.416Z,6.40
2022-12-01T15:37:42.969Z,6.40
2022-12-01T15:43:08.627Z,6.40
2022-12-01T15:45:48.400Z,6.30
2022-12-01T15:48:19.420Z,6.30
2022-12-01T15:51:00.417Z,6.30
2022-12-01T15:53:33.582Z,6.30
2022-12-01T15:56:05.514Z,6.30
2022-12-01T15:58:36.899Z,6.30
2022-12-01T16:01:09.872Z,6.30
2022-12-01T16:03:51.307Z,6.30
2022-12-01T16:06:23.412Z,6.30
2022-12-01T16:08:59.354Z,6.30
2022-12-01T16:11:28.849Z,6.30
2022-12-01T16:14:02.714Z,6.30
2022-12-01T16:16:43.010Z,6.30
2022-12-01T16:19:27.498Z,6.30
2022-12-01T16:22:03.187Z,6.30
2022-12-01T16:24:35.293Z,6.30
2022-12-01T16:27:05.741Z,6.30
2022-12-01T16:29:44.219Z,6.30
2022-12-01T16:32:20.908Z,6.30
2022-12-01T16:34:51.489Z,6.30
2022-12-01T16:37:22.610Z,6.30
2022-12-01T16:39:51.568Z,6.30
2022-12-01T16:42:21.944Z,6.20
2022-12-01T16:44:51.422Z,6.20
2022-12-01T16:47:22.092Z,6.20
2022-12-01T16:49:51.273Z,6.20
2022-12-01T16:52:43.663Z,6.20
2022-12-01T16:55:34.793Z,6.20
2022-12-01T16:58:03.521Z,6.20
2022-12-01T17:00:32.230Z,6.20
2022-12-01T17:03:01.334Z,6.10
2022-12-01T17:05:29.924Z,6.20
2022-12-01T17:08:00.007Z,6.10
2022-12-01T17:10:28.618Z,6.10
2022-12-01T17:12:57.782Z,6.10
2022-12-01T17:15:26.314Z,6.10
2022-12-01T17:17:54.977Z,6.10
2022-12-01T17:20:23.611Z,6.10
2022-12-01T17:22:52.250Z,6.10
2022-12-01T17:25:22.155Z,6.10
2022-12-01T17:27:50.693Z,6.10
2022-12-01T17:30:19.440Z,6.10
2022-12-01T17:32:47.964Z,6.00
2022-12-01T17:35:16.698Z,6.00
2022-12-01T17:37:47.997Z,6.00
2022-12-01T17:40:16.683Z,6.00
2022-12-01T17:42:51.143Z,6.00
2022-12-01T17:45:20.208Z,6.00
2022-12-01T17:47:48.772Z,6.10
2022-12-01T17:50:17.724Z,6.00
2022-12-01T17:52:46.282Z,6.00
2022-12-01T17:55:15.433Z,6.00
2022-12-01T17:57:44.095Z,6.10
2022-12-01T18:00:16.041Z,6.10
2022-12-01T18:02:47.269Z,6.10
2022-12-01T18:05:16.086Z,6.10
2022-12-01T18:07:47.695Z,6.10
2022-12-01T18:10:16.534Z,6.10
2022-12-01T18:12:48.410Z,6.10
2022-12-01T18:15:18.785Z,6.10
2022-12-01T18:17:47.363Z,6.10
2022-12-01T18:20:16.061Z,6.10
2022-12-01T18:22:47.997Z,6.10
2022-12-01T18:25:16.751Z,6.10
2022-12-01T18:27:48.097Z,6.10
2022-12-01T18:30:18.401Z,6.10
2022-12-01T18:32:46.972Z,6.10
2022-12-01T18:35:18.443Z,6.10
2022-12-01T18:37:49.866Z,6.00
2022-12-01T18:40:18.467Z,6.00
2022-12-01T18:42:47.672Z,6.00
2022-12-01T18:45:20.850Z,6.00
2022-12-01T18:47:51.311Z,6.00
2022-12-01T18:50:19.898Z,5.90
2022-12-01T18:52:49.521Z,5.90
2022-12-01T18:55:18.213Z,5.90
2022-12-01T18:57:46.776Z,5.90
2022-12-01T19:00:16.753Z,5.90
2022-12-01T19:02:48.421Z,5.90
2022-12-01T19:05:18.610Z,5.90
2022-12-01T19:07:47.397Z,5.90
2022-12-01T19:10:17.564Z,5.90
2022-12-01T19:12:46.259Z,5.80
2022-12-01T19:15:18.113Z,5.80
2022-12-01T19:17:46.863Z,5.80
2022-12-01T19:20:15.925Z,5.80
2022-12-01T19:22:51.740Z,5.80
2022-12-01T19:25:20.667Z,5.70
2022-12-01T19:27:51.204Z,5.80
2022-12-01T19:30:22.717Z,5.80
2022-12-01T19:32:51.496Z,5.80
2022-12-01T19:35:20.255Z,5.80
2022-12-01T19:37:52.263Z,5.70
2022-12-01T19:40:21.071Z,5.70
2022-12-01T19:42:50.129Z,5.70
2022-12-01T19:45:22.230Z,5.70
2022-12-01T19:47:51.349Z,5.70
2022-12-01T19:50:20.174Z,5.70
2022-12-01T19:52:50.289Z,5.70
2022-12-01T19:55:20.611Z,5.70
2022-12-01T19:57:51.825Z,5.70
2022-12-01T20:00:22.118Z,5.70
2022-12-01T20:02:55.353Z,5.70
2022-12-01T20:05:25.818Z,5.70
2022-12-01T20:07:56.063Z,5.70
2022-12-01T20:10:27.433Z,5.70
2022-12-01T20:12:56.184Z,5.70
2022-12-01T20:15:25.047Z,5.70
2022-12-01T20:17:56.597Z,5.70
2022-12-01T20:20:25.291Z,5.70
2022-12-01T20:22:56.440Z,5.60
2022-12-01T20:25:25.049Z,5.60
2022-12-01T20:27:53.725Z,5.70
2022-12-01T20:30:22.429Z,5.60
2022-12-01T20:32:51.249Z,5.70
2022-12-01T20:35:19.963Z,5.60
2022-12-01T20:37:50.213Z,5.60
2022-12-01T20:40:20.510Z,5.60
2022-12-01T20:42:58.186Z,5.60
2022-12-01T20:45:29.469Z,5.60
2022-12-01T20:48:00.355Z,5.60
2022-12-01T20:50:31.749Z,5.60
2022-12-01T20:53:02.928Z,5.60
2022-12-01T20:55:33.066Z,5.60
2022-12-01T20:58:05.192Z,5.60
2022-12-01T21:00:38.101Z,5.60
2022-12-01T21:03:07.282Z,5.60
2022-12-01T21:05:39.923Z,5.60
2022-12-01T21:08:10.786Z,5.50
2022-12-01T21:10:48.448Z,5.50
2022-12-01T21:13:37.838Z,5.50
2022-12-01T21:16:14.268Z,5.50
2022-12-01T21:18:50.048Z,5.50
2022-12-01T21:22:15.944Z,5.40
2022-12-01T21:24:51.463Z,5.40
2022-12-01T21:27:21.777Z,5.30
2022-12-01T21:29:56.869Z,5.30
2022-12-01T21:32:31.345Z,5.30
2022-12-01T21:35:07.024Z,5.30
2022-12-01T21:37:38.617Z,5.30
2022-12-01T21:40:17.488Z,5.30
2022-12-01T21:42:48.401Z,5.20
2022-12-01T21:45:28.513Z,5.20
2022-12-01T21:48:03.825Z,5.20
2022-12-01T21:50:32.925Z,5.20
2022-12-01T21:53:01.633Z,5.20
2022-12-01T21:55:39.326Z,5.10
2022-12-01T21:58:27.413Z,5.10
2022-12-01T22:00:58.052Z,5.10
2022-12-01T22:03:31.075Z,5.10
2022-12-01T22:06:31.550Z,5.10
2022-12-01T22:08:53.143Z,5.10
2022-12-01T22:11:31.369Z,5.10
2022-12-01T22:14:12.055Z,5.10
2022-12-01T22:16:46.221Z,5.10
2022-12-01T22:19:39.322Z,5.00
2022-12-01T22:22:23.875Z,5.00
2022-12-01T22:24:54.391Z,5.00
2022-12-01T22:27:28.563Z,5.00
2022-12-01T22:30:11.824Z,5.00
2022-12-01T22:32:55.635Z,5.00
2022-12-01T22:35:30.193Z,5.00
2022-12-01T22:38:29.296Z,5.00
2022-12-01T22:41:02.882Z,4.90
2022-12-01T22:43:45.600Z,4.90
2022-12-01T22:46:33.832Z,4.90
2022-12-01T22:49:11.320Z,4.90
2022-12-01T22:51:44.308Z,4.90
2022-12-01T22:54:36.939Z,4.90
2022-12-01T22:57:33.114Z,4.90
2022-12-01T23:00:15.651Z,4.90
2022-12-01T23:02:48.111Z,4.90
2022-12-01T23:05:25.935Z,4.90
2022-12-01T23:07:56.779Z,4.90
2022-12-01T23:10:29.630Z,4.90
2022-12-01T23:13:04.795Z,4.90
2022-12-01T23:15:38.882Z,4.90
2022-12-01T23:18:18.241Z,4.90
2022-12-01T23:20:52.384Z,4.90
2022-12-01T23:23:22.931Z,4.90
2022-12-01T23:25:52.603Z,4.90
2022-12-01T23:28:24.559Z,4.80
2022-12-01T23:30:56.383Z,4.80
2022-12-01T23:33:29.284Z,4.80
2022-12-01T23:36:01.323Z,4.90
2022-12-01T23:38:35.295Z,4.80
2022-12-01T23:41:07.611Z,4.80
2022-12-01T23:43:41.489Z,4.80
2022-12-01T23:46:17.168Z,4.80
2022-12-01T23:48:50.523Z,4.80
2022-12-01T23:51:21.687Z,4.80
2022-12-01T23:53:51.043Z,4.80
2022-12-01T23:56:22.804Z,4.80
2022-12-01T23:58:52.109Z,4.80
